Boyd Deep Canyon Reserve, California Weather observations

Data are for 10 minute period ending at time listed.
 Day   Time   Solar   Ave.   Ave.  Ave.  Vector  Max.   Baro.   Total    
  of    of     Rad.   Air    Rel.  Wind   Wind   Wind  Press.  Precip.   
Year   Day            Temp.  Hum.  Speed  Dir.   Gust                    
2016   (PST)  Kw/m2    F      %     mph   deg.    mph    mb.     in.     
-------------------------------------------------------------------------
  37    6:10   0.00   56.2    22    8.3   202    14.5   992.3    0.00 
  37    6:20   0.00   56.0    22    8.2   202    12.7   992.4    0.00 
  37    6:30   0.00   56.2    22    8.7   204    15.3   992.3    0.00 
  37    6:40   0.00   56.0    22    8.4   210    12.7   992.3    0.00 
  37    6:50   0.00   56.0    21    7.7   205    14.5   992.3    0.00 
  37    7:00   0.01   56.2    21    9.0   206    13.6   992.2    0.00 
  37    7:10   0.01   56.2    21   10.9   216    17.0   992.1    0.00 
  37    7:20   0.01   56.4    21   11.2   218    15.9   992.1    0.00 
  37    7:30   0.07   56.9    20   11.6   215    16.4   992.2    0.00 
  37    7:40   0.15   57.3    20   10.2   210    14.5   992.3    0.00 
  37    7:50   0.19   58.1    19    8.4   196    12.6   992.5    0.00 
  37    8:00   0.22   58.6    19    6.6   178     9.6   992.6    0.00 
  37    8:10   0.25   59.1    18    6.9   176     9.1   992.8    0.00 
  37    8:20   0.29   59.5    18    7.2   175     9.6   992.9    0.00 
  37    8:30   0.32   59.8    19    6.0   173     8.5   992.8    0.00 
  37    8:40   0.35   61.1    18    4.3   164     5.6   992.7    0.00 
  37    8:50   0.39   63.3    17    1.3   165     3.9   992.7    0.00 
  37    9:00   0.42   63.8    18    1.8   204     2.5   992.9    0.00 
  37    9:10   0.45   64.3    17    1.8   172     3.1   993.0    0.00 
  37    9:20   0.47   66.6    15    0.7   148     1.4   993.1    0.00 
  37    9:30   0.50   66.3    16    2.8    13     6.9   993.2    0.00 
  37    9:40   0.53   63.5    18    3.6    11     5.3   993.2    0.00 
  37    9:50   0.55   64.3    17    2.3    11     4.9   993.2    0.00 
  37   10:00   0.57   65.3    16    2.9    20     5.0   993.2    0.00 
  37   10:10   0.59   65.7    16    2.1    42     3.6   993.2    0.00 
  37   10:20   0.62   66.1    16    1.6    20     4.1   993.1    0.00 
  37   10:30   0.64   67.1    15    2.2   145     3.4   993.0    0.00 
  37   10:40   0.65   67.7    14    1.5   143     3.8   992.8    0.00 
  37   10:50   0.67   67.6    14    1.4   198     4.2   992.6    0.00 
  37   11:00   0.68   68.2    14    1.1   245     2.6   992.5    0.00 
  37   11:10   0.69   69.0    13    1.5   165     2.9   992.3    0.00 
  37   11:20   0.70   69.8    12    1.1   135     3.7   992.1    0.00 
  37   11:30   0.71   70.4    12    0.9   226     2.7   991.8    0.00 
  37   11:40   0.72   69.8    12    1.9   180     3.4   991.5    0.00 
  37   11:50   0.72   69.9    12    3.0   344     7.1   991.2    0.00 
  37   12:00   0.72   69.5    12    2.4    34     5.3   991.0    0.00 
  37   12:10   0.72   69.9    12    2.6    34     6.1   990.7    0.00 
  37   12:20   0.72   69.5    12    2.5    20     5.3   990.4    0.00 
  37   12:30   0.71   70.2    11    1.8    20     3.7   990.1    0.00 
  37   12:40   0.69   71.2    11    2.4    49     5.9   989.9    0.00 
  37   12:50   0.70   70.9    11    2.6    53     5.0   989.6    0.00 
  37   13:00   0.69   71.0    11    2.3    42     5.0   989.4    0.00 
  37   13:10   0.68   71.5    11    2.8    28     5.8   989.1    0.00 
  37   13:20   0.67   71.8    11    2.2     2     5.3   988.9    0.00 
  37   13:30   0.65   71.7    11    2.2    88     4.7   988.7    0.00 
  37   13:40   0.63   72.3    11    3.9   344     7.4   988.6    0.00 
  37   13:50   0.61   72.4    11    3.1     9     6.9   988.5    0.00 
  37   14:00   0.59   72.3    10    1.9     6     5.2   988.4    0.00 
  37   14:10   0.57   74.8    10    1.6   196     3.3   988.2    0.00 
  37   14:20   0.55   74.1    10    1.9    90     4.1   988.0    0.00 
  37   14:30   0.52   74.1    10    1.3    65     4.6   987.9    0.00 
  37   14:40   0.50   73.1    10    2.1    68     4.9   987.8    0.00 
  37   14:50   0.47   73.8    10    1.7    82     5.1   987.7    0.00 
  37   15:00   0.44   73.7    10    1.7    74     4.7   987.7    0.00 
  37   15:10   0.41   74.0    10    1.6    63     5.0   987.7    0.00 
  37   15:20   0.38   73.2    10    2.7   102     4.7   987.7    0.00 
  37   15:30   0.34   74.2    10    1.7     8     4.2   987.7    0.00 
  37   15:40   0.31   73.3    11    4.1   345     6.9   987.8    0.00 
  37   15:50   0.28   73.6    11    2.6   337     6.0   987.8    0.00 
  37   16:00   0.24   73.8    11    2.0    30     5.6   987.8    0.00 
  37   16:10   0.05   73.2    11    1.6   192     3.7   987.8    0.00 
  37   16:20   0.03   70.1    12    4.4   192     5.5   987.7    0.00 
  37   16:30   0.02   69.2    12    4.0   188     5.3   987.8    0.00 
  37   16:40   0.01   68.4    13    4.0   193     5.6   987.8    0.00 
  37   16:50   0.01   67.9    13    4.1   181     5.2   987.8    0.00 
  37   17:00   0.01   67.8    12    4.6   174     5.9   987.8    0.00 
  37   17:10   0.01   67.0    13    3.3   195     4.8   987.8    0.00 
  37   17:20   0.00   66.7    13    4.3   173     5.6   987.8    0.00 
  37   17:30   0.00   66.9    12    5.1   178     6.8   987.9    0.00 
  37   17:40   0.00   66.7    13    5.8   183     8.9   987.9    0.00 
  37   17:50   0.00   66.7    13    6.1   203    10.2   988.0    0.00 
  37   18:00   0.00   66.4    13    7.7   202    12.7   988.1    0.00 
  37   18:10   0.00   66.1    13    8.7   221    14.6   988.3    0.00 
  37   18:20   0.00   65.8    13    9.6   217    15.0   988.3    0.00 
  37   18:30   0.00   65.2    13    9.0   216    13.9   988.3    0.00 
  37   18:40   0.00   64.9    13   10.1   214    14.7   988.4    0.00 
  37   18:50   0.00   64.8    14   10.5   212    15.2   988.4    0.00 
  37   19:00   0.00   64.5    13    9.4   209    16.4   988.4    0.00 
  37   19:10   0.00   64.5    13   10.1   207    16.5   988.4    0.00 
  37   19:20   0.00   64.0    14   10.2   208    17.2   988.4    0.00 
  37   19:30   0.00   63.8    14    8.6   209    13.4   988.5    0.00 
  37   19:40   0.00   63.8    13   10.7   225    16.8   988.6    0.00 
  37   19:50   0.00   64.2    13   11.3   229    16.8   988.7    0.00 
  37   20:00   0.00   64.1    13   11.5   225    16.4   988.8    0.00 
  37   20:10   0.00   63.8    13   10.9   225    16.1   988.8    0.00 
  37   20:20   0.00   63.5    14   10.0   216    15.0   988.7    0.00 
  37   20:30   0.00   63.7    13   10.4   220    16.1   988.6    0.00 
  37   20:40   0.00   63.6    13   10.8   225    14.9   988.6    0.00 
  37   20:50   0.00   63.4    13   11.2   222    15.3   988.5    0.00 
  37   21:00   0.00   63.3    13   12.0   224    16.7   988.5    0.00 
  37   21:10   0.00   63.2    14   10.8   222    16.4   988.6    0.00 
  37   21:20   0.00   62.8    14    9.6   218    14.5   988.6    0.00 
  37   21:30   0.00   63.2    13   11.2   228    15.0   988.6    0.00 
  37   21:40   0.00   63.1    13   13.1   228    18.0   988.5    0.00 
  37   21:50   0.00   63.0    13   12.6   220    16.7   988.5    0.00 
  37   22:00   0.00   62.9    13   13.0   226    18.8   988.4    0.00 
  37   22:10   0.00   63.0    13   12.6   222    16.5   988.4    0.00 
  37   22:20   0.00   62.7    13   12.0   222    18.3   988.5    0.00 
  37   22:30   0.00   62.8    13   10.6   220    15.1   988.5    0.00 
  37   22:40   0.00   62.9    13   12.1   209    17.0   988.5    0.00 
  37   22:50   0.00   63.0    13   12.9   212    18.0   988.5    0.00 
  37   23:00   0.00   62.9    13   12.4   210    17.2   988.5    0.00 
  37   23:10   0.00   62.4    13    9.7   204    15.1   988.6    0.00 
  37   23:20   0.00   62.2    13    8.9   193    14.7   988.6    0.00 
  37   23:30   0.00   62.0    13    8.3   200    12.4   988.6    0.00 
  37   23:40   0.00   61.9    13    8.6   201    15.1   988.6    0.00 
  37   23:50   0.00   62.2    13   11.2   213    15.6   988.5    0.00 
  38    0:00   0.00   62.3    13   11.6   219    18.1   988.4    0.00 
  38    0:10   0.00   62.6    13   12.6   223    18.0   988.3    0.00 
  38    0:20   0.00   62.9    12   13.2   223    17.7   988.3    0.00 
  38    0:30   0.00   62.6    13   12.8   215    19.1   988.4    0.00 
  38    0:40   0.00   62.4    13   11.8   212    18.8   988.4    0.00 
  38    0:50   0.00   62.5    13   13.4   212    18.2   988.3    0.00 
  38    1:00   0.00   62.4    13   12.8   218    17.8   988.2    0.00 
  38    1:10   0.00   62.5    13   12.3   219    16.4   988.4    0.00 
  38    1:20   0.00   62.6    13   13.1   214    18.8   988.4    0.00 
  38    1:30   0.00   62.3    13   13.7   217    19.9   988.3    0.00 
  38    1:40   0.00   62.3    13   13.5   217    18.3   988.2    0.00 
  38    1:50   0.00   62.3    13   13.7   212    18.7   988.2    0.00 
  38    2:00   0.00   62.3    13   13.7   213    18.5   988.2    0.00 
  38    2:10   0.00   62.1    13   13.2   211    18.0   988.2    0.00 
  38    2:20   0.00   62.1    13   13.5   217    18.5   988.2    0.00 
  38    2:30   0.00   62.2    13   12.5   221    17.4   988.2    0.00 
  38    2:40   0.00   62.0    13   11.5   216    17.2   988.2    0.00 
  38    2:50   0.00   62.0    13   12.6   210    17.6   988.2    0.00 
  38    3:00   0.00   62.0    13   12.0   203    17.5   988.2    0.00 
  38    3:10   0.00   61.7    13   11.3   204    16.8   988.1    0.00 
  38    3:20   0.00   61.5    14   12.0   209    17.8   987.9    0.00 
  38    3:30   0.00   61.2    14    9.8   209    14.1   987.8    0.00 
  38    3:40   0.00   61.4    14   11.4   208    17.0   987.8    0.00 
  38    3:50   0.00   61.3    14   11.0   208    16.9   987.8    0.00 
  38    4:00   0.00   61.4    14   13.4   215    19.6   987.8    0.00 
  38    4:10   0.00   61.1    14   12.9   218    19.1   987.8    0.00 
  38    4:20   0.00   61.4    14   13.9   217    19.6   987.8    0.00 
  38    4:30   0.00   61.1    14   11.7   220    17.6   987.8    0.00 
  38    4:40   0.00   61.3    14   12.5   227    18.9   987.8    0.00 
  38    4:50   0.00   61.7    14   14.6   225    20.8   987.8    0.00 
  38    5:00   0.00   61.4    14   13.1   219    18.9   987.8    0.00 
  38    5:10   0.00   61.6    14   14.2   217    19.4   987.8    0.00 
  38    5:20   0.00   61.5    14   13.4   215    19.1   987.8    0.00 
  38    5:30   0.00   61.5    14   12.7   224    17.9   987.6    0.00 
  38    5:40   0.00   61.3    14   11.5   227    17.8   987.6    0.00 
  38    5:50   0.00   61.3    14   11.1   220    17.2   987.7    0.00 
  38    6:00   0.00   61.6    13   12.2   218    19.8   987.8    0.00 

Return to Boyd Deep Canyon Reserve graphs page.


Western Regional Climate Center,wrcc@dri.edu